createdAt,value
2018-05-27T00:02:07.803Z,22.00
2018-05-27T00:04:42.634Z,21.98
2018-05-27T00:07:17.902Z,21.94
2018-05-27T00:09:53.118Z,21.92
2018-05-27T00:12:28.058Z,21.86
2018-05-27T00:15:02.667Z,21.82
2018-05-27T00:17:37.390Z,21.78
2018-05-27T00:20:12.760Z,21.72
2018-05-27T00:22:47.329Z,21.69
2018-05-27T00:25:21.460Z,21.67
2018-05-27T00:27:56.456Z,21.59
2018-05-27T00:30:31.696Z,21.46
2018-05-27T00:33:06.337Z,21.30
2018-05-27T00:35:41.052Z,21.19
2018-05-27T00:38:15.713Z,21.08
2018-05-27T00:40:50.489Z,20.97
2018-05-27T00:43:25.507Z,20.87
2018-05-27T00:46:00.835Z,20.81
2018-05-27T00:48:35.460Z,20.72
2018-05-27T00:51:10.617Z,20.61
2018-05-27T00:53:56.305Z,20.50
2018-05-27T00:56:31.647Z,20.42
2018-05-27T00:59:06.606Z,20.36
2018-05-27T01:01:41.845Z,20.34
2018-05-27T01:04:16.548Z,20.30
2018-05-27T01:06:51.782Z,20.26
2018-05-27T01:09:26.822Z,20.19
2018-05-27T01:12:02.031Z,20.10
2018-05-27T01:14:37.374Z,20.03
2018-05-27T01:17:12.750Z,20.00
2018-05-27T01:19:47.877Z,19.99
2018-05-27T01:22:23.183Z,19.98
2018-05-27T01:24:58.357Z,19.97
2018-05-27T01:27:33.688Z,19.92
2018-05-27T01:30:09.154Z,19.87
2018-05-27T01:32:44.589Z,19.85
2018-05-27T01:35:20.033Z,19.83
2018-05-27T01:37:54.845Z,19.84
2018-05-27T01:40:29.584Z,19.80
2018-05-27T01:43:04.789Z,19.76
2018-05-27T01:45:39.779Z,19.66
2018-05-27T01:48:14.352Z,19.58
2018-05-27T01:50:49.549Z,19.54
2018-05-27T01:53:24.572Z,19.44
2018-05-27T01:55:59.941Z,19.37
2018-05-27T01:58:34.569Z,19.31
2018-05-27T02:01:09.397Z,19.27
2018-05-27T02:03:44.829Z,19.24
2018-05-27T02:06:19.358Z,19.21
2018-05-27T02:08:54.162Z,19.17
2018-05-27T02:11:29.513Z,19.15
2018-05-27T02:14:03.813Z,19.09
2018-05-27T02:16:38.393Z,19.00
2018-05-27T02:19:12.882Z,19.00
2018-05-27T02:21:48.316Z,19.01
2018-05-27T02:24:23.793Z,19.01
2018-05-27T02:26:59.169Z,18.99
2018-05-27T02:29:34.333Z,18.96
2018-05-27T02:32:10.125Z,18.95
2018-05-27T02:34:44.942Z,18.95
2018-05-27T02:37:20.191Z,18.96
2018-05-27T02:39:55.333Z,18.93
2018-05-27T02:42:30.548Z,18.84
2018-05-27T02:45:04.428Z,18.77
2018-05-27T02:47:39.566Z,18.68
2018-05-27T02:50:14.377Z,18.57
2018-05-27T02:52:49.145Z,18.49
2018-05-27T02:55:24.077Z,18.42
2018-05-27T02:57:58.825Z,18.40
2018-05-27T03:00:33.565Z,18.40
2018-05-27T03:03:08.787Z,18.42
2018-05-27T03:05:43.841Z,18.43
2018-05-27T03:08:18.841Z,18.42
2018-05-27T03:10:54.002Z,18.40
2018-05-27T03:13:29.048Z,18.40
2018-05-27T03:16:04.409Z,18.42
2018-05-27T03:18:39.616Z,18.40
2018-05-27T03:21:14.688Z,18.39
2018-05-27T03:23:49.952Z,18.38
2018-05-27T03:26:24.935Z,18.39
2018-05-27T03:29:00.016Z,18.37
2018-05-27T03:31:35.012Z,18.33
2018-05-27T03:34:10.215Z,18.27
2018-05-27T03:36:45.445Z,18.28
2018-05-27T03:39:20.819Z,18.27
2018-05-27T03:41:55.985Z,18.25
2018-05-27T03:44:31.041Z,18.24
2018-05-27T03:47:06.454Z,18.22
2018-05-27T03:49:41.184Z,18.20
2018-05-27T03:52:15.584Z,18.18
2018-05-27T03:54:50.449Z,18.11
2018-05-27T03:57:26.033Z,18.01
2018-05-27T04:00:03.006Z,17.96
2018-05-27T04:02:38.007Z,17.95
2018-05-27T04:18:47.265Z,18.15
2018-05-27T04:21:22.205Z,18.13
2018-05-27T04:23:57.025Z,18.08
2018-05-27T04:26:31.915Z,18.02
2018-05-27T04:29:06.673Z,18.05
2018-05-27T04:31:45.307Z,18.19
2018-05-27T04:34:20.208Z,18.36
2018-05-27T04:36:56.201Z,18.46
2018-05-27T04:39:30.807Z,18.58
2018-05-27T04:42:05.614Z,18.67
2018-05-27T04:44:41.191Z,18.74
2018-05-27T04:47:16.019Z,18.81
2018-05-27T04:49:50.722Z,18.83
2018-05-27T04:52:25.372Z,18.87
2018-05-27T04:55:00.155Z,18.92
2018-05-27T04:57:34.900Z,19.02
2018-05-27T05:00:09.809Z,19.13
2018-05-27T05:02:44.565Z,19.21
2018-05-27T05:05:19.241Z,19.21
2018-05-27T05:07:54.249Z,19.22
2018-05-27T05:10:29.001Z,19.24
2018-05-27T05:13:03.906Z,19.25
2018-05-27T05:15:38.646Z,19.23
2018-05-27T05:18:13.687Z,19.25
2018-05-27T05:20:48.497Z,19.25
2018-05-27T05:23:23.242Z,19.23
2018-05-27T05:25:58.073Z,19.24
2018-05-27T05:28:33.125Z,19.29
2018-05-27T05:31:08.108Z,19.33
2018-05-27T05:33:43.081Z,19.39
2018-05-27T05:36:17.970Z,19.41
2018-05-27T05:38:52.569Z,19.48
2018-05-27T05:41:27.600Z,19.59
2018-05-27T05:44:02.217Z,19.72
2018-05-27T05:46:36.916Z,19.86
2018-05-27T05:49:11.864Z,19.98
2018-05-27T05:51:46.676Z,20.11
2018-05-27T05:54:21.437Z,20.22
2018-05-27T05:56:56.228Z,20.31
2018-05-27T05:59:30.969Z,20.43
2018-05-27T06:02:05.650Z,20.52
2018-05-27T06:04:40.655Z,20.58
2018-05-27T06:07:15.464Z,20.65
2018-05-27T06:09:50.323Z,20.69
2018-05-27T06:12:25.225Z,20.78
2018-05-27T06:15:00.173Z,20.83
2018-05-27T06:17:34.820Z,20.83
2018-05-27T06:20:09.721Z,20.81
2018-05-27T06:22:44.562Z,20.88
2018-05-27T06:25:19.491Z,21.00
2018-05-27T06:27:54.326Z,21.19
2018-05-27T06:30:29.293Z,21.38
2018-05-27T06:33:04.183Z,21.57
2018-05-27T06:35:39.033Z,21.76
2018-05-27T06:38:13.853Z,21.91
2018-05-27T06:40:48.866Z,21.98
2018-05-27T06:43:23.913Z,21.95
2018-05-27T06:45:58.535Z,21.94
2018-05-27T06:48:33.380Z,21.98
2018-05-27T06:51:08.148Z,22.01
2018-05-27T06:53:43.689Z,22.07
2018-05-27T06:56:18.392Z,22.12
2018-05-27T06:58:53.349Z,22.19
2018-05-27T07:01:28.097Z,22.27
2018-05-27T07:04:02.857Z,22.41
2018-05-27T07:06:37.649Z,22.49
2018-05-27T07:09:13.163Z,22.60
2018-05-27T07:11:47.930Z,22.82
2018-05-27T07:14:22.721Z,23.04
2018-05-27T07:16:57.540Z,23.19
2018-05-27T07:19:32.439Z,23.30
2018-05-27T07:22:07.448Z,23.40
2018-05-27T07:24:42.165Z,23.48
2018-05-27T07:27:16.990Z,23.57
2018-05-27T07:29:51.906Z,23.57
2018-05-27T07:32:26.653Z,23.64
2018-05-27T07:35:01.543Z,23.81
2018-05-27T07:37:36.441Z,23.93
2018-05-27T07:40:11.244Z,23.99
2018-05-27T07:42:46.204Z,24.04
2018-05-27T07:45:21.096Z,24.10
2018-05-27T07:47:55.821Z,24.24
2018-05-27T07:50:30.893Z,24.38
2018-05-27T07:53:05.495Z,24.58
2018-05-27T07:55:40.434Z,24.74
2018-05-27T07:58:15.332Z,24.87
2018-05-27T08:00:50.109Z,24.99
2018-05-27T08:03:24.701Z,25.06
2018-05-27T08:05:59.561Z,25.06
2018-05-27T08:08:34.405Z,24.99
2018-05-27T08:11:09.382Z,25.12
2018-05-27T08:13:44.233Z,25.23
2018-05-27T08:16:18.989Z,25.32
2018-05-27T08:18:53.710Z,25.43
2018-05-27T08:21:28.446Z,25.37
2018-05-27T08:24:03.150Z,25.38
2018-05-27T08:26:37.853Z,25.53
2018-05-27T08:29:12.514Z,25.75
2018-05-27T08:31:47.448Z,25.99
2018-05-27T08:34:22.943Z,26.07
2018-05-27T08:36:58.137Z,26.09
2018-05-27T08:39:32.965Z,26.10
2018-05-27T08:42:07.794Z,26.24
2018-05-27T08:44:42.529Z,26.40
2018-05-27T08:47:17.381Z,26.32
2018-05-27T08:49:52.183Z,26.20
2018-05-27T08:52:27.029Z,26.17
2018-05-27T08:55:01.817Z,26.30
2018-05-27T08:57:36.699Z,26.38
2018-05-27T09:00:11.998Z,26.50
2018-05-27T09:02:46.717Z,26.56
2018-05-27T09:05:21.377Z,26.50
2018-05-27T09:07:56.109Z,26.65
2018-05-27T09:10:30.897Z,26.72
2018-05-27T09:13:05.660Z,26.83
2018-05-27T09:15:40.387Z,27.03
2018-05-27T09:18:15.270Z,27.34
2018-05-27T09:20:50.168Z,27.42
2018-05-27T09:23:24.877Z,27.43
2018-05-27T09:25:59.788Z,27.44
2018-05-27T09:28:34.601Z,27.43
2018-05-27T09:31:09.077Z,27.32
2018-05-27T09:33:43.869Z,27.45
2018-05-27T09:36:18.784Z,27.65
2018-05-27T09:38:53.650Z,27.81
2018-05-27T09:41:28.500Z,27.88
2018-05-27T09:44:03.296Z,27.98
2018-05-27T09:46:38.458Z,28.24
2018-05-27T09:49:13.198Z,28.54
2018-05-27T09:51:47.824Z,28.76
2018-05-27T09:54:22.859Z,28.82
2018-05-27T09:56:57.802Z,28.69
2018-05-27T09:59:32.584Z,28.59
2018-05-27T10:02:07.786Z,28.47
2018-05-27T10:04:42.768Z,28.52
2018-05-27T10:07:17.592Z,28.83
2018-05-27T10:09:52.578Z,29.17
2018-05-27T10:12:27.403Z,29.37
2018-05-27T10:15:02.133Z,29.06
2018-05-27T10:17:36.901Z,28.94
2018-05-27T10:20:11.888Z,28.94
2018-05-27T10:22:46.837Z,28.88
2018-05-27T10:25:21.580Z,28.84
2018-05-27T10:27:56.502Z,28.87
2018-05-27T10:30:31.454Z,29.10
2018-05-27T10:33:06.413Z,29.16
2018-05-27T10:35:41.013Z,29.23
2018-05-27T10:38:15.706Z,29.55
2018-05-27T10:40:50.849Z,29.72
2018-05-27T10:43:25.574Z,29.81
2018-05-27T10:46:00.596Z,29.95
2018-05-27T10:48:35.047Z,29.93
2018-05-27T10:51:10.158Z,29.79
2018-05-27T10:53:44.773Z,29.76
2018-05-27T10:56:19.716Z,29.86
2018-05-27T10:58:54.602Z,29.92
2018-05-27T11:01:29.214Z,29.91
2018-05-27T11:04:04.042Z,29.95
2018-05-27T11:06:38.849Z,30.28
2018-05-27T11:09:13.732Z,30.66
2018-05-27T11:11:48.608Z,30.62
2018-05-27T11:14:23.249Z,30.48
2018-05-27T11:16:58.066Z,30.43
2018-05-27T11:19:32.714Z,30.53
2018-05-27T11:22:07.666Z,30.73
2018-05-27T11:24:43.108Z,30.79
2018-05-27T11:27:18.146Z,30.68
2018-05-27T11:29:53.066Z,30.64
2018-05-27T11:32:27.785Z,30.57
2018-05-27T11:35:02.282Z,30.46
2018-05-27T11:37:40.281Z,30.55
2018-05-27T11:40:14.945Z,30.64
2018-05-27T11:42:49.970Z,30.73
2018-05-27T11:45:24.556Z,30.64
2018-05-27T11:47:59.529Z,30.58
2018-05-27T11:50:34.438Z,30.62
2018-05-27T11:53:09.714Z,30.83
2018-05-27T11:55:44.418Z,31.16
2018-05-27T11:58:19.570Z,31.52
2018-05-27T12:00:54.803Z,31.64
2018-05-27T12:03:29.476Z,31.58
2018-05-27T12:06:04.404Z,31.43
2018-05-27T12:08:39.243Z,31.52
2018-05-27T12:11:13.769Z,31.73
2018-05-27T12:13:48.688Z,31.85
2018-05-27T12:16:23.577Z,31.76
2018-05-27T12:18:58.644Z,31.83
2018-05-27T12:21:33.482Z,31.78
2018-05-27T12:24:08.450Z,31.79
2018-05-27T12:26:43.364Z,31.80
2018-05-27T12:29:18.090Z,31.72
2018-05-27T12:31:53.194Z,31.49
2018-05-27T12:34:28.228Z,31.30
2018-05-27T12:37:03.561Z,31.24
2018-05-27T12:39:38.804Z,31.18
2018-05-27T12:42:13.649Z,31.25
2018-05-27T12:44:48.704Z,31.52
2018-05-27T12:47:23.380Z,31.66
2018-05-27T12:49:57.861Z,31.78
2018-05-27T12:52:32.989Z,31.79
2018-05-27T12:55:08.002Z,31.85
2018-05-27T12:57:42.827Z,31.94
2018-05-27T13:00:17.648Z,31.99
2018-05-27T13:02:52.699Z,32.19
2018-05-27T13:05:27.841Z,32.50
2018-05-27T13:08:02.324Z,32.71
2018-05-27T13:10:37.478Z,32.66
2018-05-27T13:13:12.641Z,32.64
2018-05-27T13:15:47.661Z,32.82
2018-05-27T13:18:22.709Z,32.65
2018-05-27T13:20:57.953Z,32.38
2018-05-27T13:23:32.777Z,32.30
2018-05-27T13:26:07.476Z,32.22
2018-05-27T13:28:42.444Z,32.17
2018-05-27T13:31:17.145Z,32.14
2018-05-27T13:33:51.925Z,32.14
2018-05-27T13:36:26.840Z,32.22
2018-05-27T13:39:01.738Z,32.39
2018-05-27T13:41:36.688Z,32.57
2018-05-27T13:44:11.541Z,32.76
2018-05-27T13:46:46.372Z,32.44
2018-05-27T13:49:21.420Z,31.96
2018-05-27T13:51:56.282Z,31.79
2018-05-27T13:54:31.429Z,31.89
2018-05-27T13:57:06.340Z,32.08
2018-05-27T13:59:41.134Z,32.13
2018-05-27T14:02:15.955Z,32.16
2018-05-27T14:04:50.845Z,32.18
2018-05-27T14:07:25.500Z,32.28
2018-05-27T14:10:00.409Z,32.38
2018-05-27T14:12:35.187Z,32.30
2018-05-27T14:15:09.407Z,32.21
2018-05-27T14:17:44.517Z,32.37
2018-05-27T14:20:19.575Z,32.61
2018-05-27T14:22:54.361Z,32.91
2018-05-27T14:25:29.376Z,33.29
2018-05-27T14:28:04.172Z,33.29
2018-05-27T14:30:38.537Z,33.11
2018-05-27T14:33:13.994Z,32.80
2018-05-27T14:35:48.885Z,32.62
2018-05-27T14:38:24.017Z,32.63
2018-05-27T14:40:58.817Z,32.65
2018-05-27T14:43:33.625Z,32.57
2018-05-27T14:46:08.409Z,32.42
2018-05-27T14:48:43.227Z,32.17
2018-05-27T14:51:18.089Z,31.81
2018-05-27T14:53:53.095Z,31.62
2018-05-27T14:56:27.977Z,31.50
2018-05-27T14:59:02.826Z,31.38
2018-05-27T15:01:37.780Z,31.29
2018-05-27T15:04:12.931Z,31.33
2018-05-27T15:06:47.609Z,31.41
2018-05-27T15:09:22.412Z,31.44
2018-05-27T15:11:57.431Z,31.47
2018-05-27T15:14:32.349Z,31.43
2018-05-27T15:17:07.252Z,31.24
2018-05-27T15:19:42.294Z,31.09
2018-05-27T15:22:16.847Z,30.88
2018-05-27T15:24:52.092Z,30.78
2018-05-27T15:27:26.836Z,30.79
2018-05-27T15:30:01.841Z,30.68
2018-05-27T15:32:36.801Z,30.54
2018-05-27T15:35:11.949Z,30.45
2018-05-27T15:37:46.657Z,30.33
2018-05-27T15:40:21.476Z,30.21
2018-05-27T15:42:56.285Z,30.12
2018-05-27T15:45:31.253Z,30.14
2018-05-27T15:48:05.860Z,30.10
2018-05-27T15:50:40.824Z,30.02
2018-05-27T15:53:15.709Z,29.94
2018-05-27T15:55:50.777Z,29.87
2018-05-27T15:58:25.725Z,29.82
2018-05-27T16:01:00.644Z,29.74
2018-05-27T16:03:35.453Z,29.64
2018-05-27T16:06:10.426Z,29.55
2018-05-27T16:08:45.180Z,29.45
2018-05-27T16:11:20.009Z,29.34
2018-05-27T16:13:54.966Z,29.28
2018-05-27T16:16:29.845Z,29.26
2018-05-27T16:19:04.312Z,29.25
2018-05-27T16:21:39.244Z,29.24
2018-05-27T16:24:14.359Z,29.25
2018-05-27T16:26:49.152Z,29.28
2018-05-27T16:29:23.803Z,29.27
2018-05-27T16:31:58.511Z,29.23
2018-05-27T16:34:33.248Z,29.14
2018-05-27T16:37:08.239Z,29.05
2018-05-27T16:39:43.433Z,29.02
2018-05-27T16:42:18.149Z,29.01
2018-05-27T16:44:53.593Z,28.98
2018-05-27T16:47:28.690Z,28.89
2018-05-27T16:53:00.941Z,28.80
2018-05-27T16:55:35.532Z,28.78
2018-05-27T16:58:10.689Z,28.72
2018-05-27T17:00:45.340Z,28.62
2018-05-27T17:03:20.005Z,28.51
2018-05-27T17:05:54.826Z,28.41
2018-05-27T17:08:38.816Z,28.31
2018-05-27T17:11:13.256Z,28.26
2018-05-27T17:13:47.964Z,28.20
2018-05-27T17:16:22.768Z,28.13
2018-05-27T17:18:57.608Z,28.06
2018-05-27T17:21:32.867Z,28.00
2018-05-27T17:24:07.905Z,27.96
2018-05-27T17:26:42.609Z,27.95
2018-05-27T17:29:17.911Z,27.88
2018-05-27T17:31:52.671Z,27.82
2018-05-27T17:34:27.621Z,27.77
2018-05-27T17:37:02.520Z,27.69
2018-05-27T17:39:37.761Z,27.61
2018-05-27T17:42:12.549Z,27.53
2018-05-27T17:44:47.609Z,27.45
2018-05-27T17:47:22.995Z,27.05
2018-05-27T17:49:58.249Z,26.71
2018-05-27T17:52:33.492Z,26.34
2018-05-27T17:55:08.849Z,26.12
2018-05-27T17:57:43.672Z,25.97
2018-05-27T18:00:18.549Z,25.83
2018-05-27T18:02:53.483Z,25.68
2018-05-27T18:05:28.593Z,25.58
2018-05-27T18:08:03.383Z,25.45
2018-05-27T18:10:38.128Z,25.35
2018-05-27T18:13:14.526Z,25.13
2018-05-27T18:15:49.897Z,24.82
2018-05-27T18:18:25.281Z,24.53
2018-05-27T18:21:00.629Z,24.34
2018-05-27T18:23:35.841Z,24.21
2018-05-27T18:26:10.664Z,24.11
2018-05-27T18:28:45.497Z,23.98
2018-05-27T18:31:20.531Z,23.89
2018-05-27T18:33:55.305Z,23.80
2018-05-27T18:36:30.109Z,23.79
2018-05-27T18:39:04.172Z,23.73
2018-05-27T18:41:40.050Z,23.69
2018-05-27T18:44:14.454Z,23.75
2018-05-27T18:46:49.368Z,23.86
2018-05-27T18:49:24.486Z,23.90
2018-05-27T18:51:59.925Z,23.88
2018-05-27T18:54:37.521Z,23.63
2018-05-27T18:57:12.108Z,23.28
2018-05-27T18:59:46.994Z,22.95
2018-05-27T19:02:21.924Z,22.62
2018-05-27T19:04:56.828Z,22.44
2018-05-27T19:07:31.805Z,22.27
2018-05-27T19:10:06.641Z,22.25
2018-05-27T19:12:41.528Z,22.29
2018-05-27T19:15:16.078Z,22.37
2018-05-27T19:17:51.205Z,22.39
2018-05-27T19:20:26.874Z,22.55
2018-05-27T19:23:01.625Z,22.81
2018-05-27T19:25:36.441Z,23.00
2018-05-27T19:28:11.233Z,22.99
2018-05-27T19:30:46.080Z,22.96
2018-05-27T19:33:20.984Z,22.92
2018-05-27T19:35:55.980Z,22.98
2018-05-27T19:38:31.009Z,23.10
2018-05-27T19:41:05.738Z,23.24
2018-05-27T19:43:40.660Z,23.38
2018-05-27T19:46:15.300Z,23.50
2018-05-27T19:48:50.072Z,23.60
2018-05-27T19:51:25.040Z,23.67
2018-05-27T19:54:00.160Z,23.72
2018-05-27T19:56:35.049Z,23.75
2018-05-27T19:59:09.858Z,23.77
2018-05-27T20:01:44.796Z,23.71
2018-05-27T20:04:19.312Z,23.64
2018-05-27T20:06:54.349Z,23.26
2018-05-27T20:09:29.390Z,22.66
2018-05-27T20:12:04.328Z,22.18
2018-05-27T20:14:39.145Z,21.84
2018-05-27T20:17:14.692Z,21.70
2018-05-27T20:19:49.428Z,21.72
2018-05-27T20:22:24.897Z,21.76
2018-05-27T20:25:00.456Z,21.92
2018-05-27T20:27:35.360Z,22.11
2018-05-27T20:30:10.289Z,22.35
2018-05-27T20:32:44.955Z,22.57
2018-05-27T20:35:19.738Z,22.68
2018-05-27T20:37:54.973Z,22.77
2018-05-27T20:40:29.921Z,22.86
2018-05-27T20:43:04.720Z,22.95
2018-05-27T20:45:39.404Z,23.09
2018-05-27T20:48:14.626Z,23.24
2018-05-27T20:50:49.308Z,23.39
2018-05-27T20:53:24.564Z,23.43
2018-05-27T20:55:59.829Z,23.28
2018-05-27T20:58:34.977Z,23.21
2018-05-27T21:01:09.816Z,23.26
2018-05-27T21:03:44.837Z,23.26
2018-05-27T21:06:20.051Z,23.15
2018-05-27T21:08:54.822Z,23.14
2018-05-27T21:11:29.295Z,23.17
2018-05-27T21:14:03.883Z,23.16
2018-05-27T21:16:39.197Z,23.17
2018-05-27T21:19:14.159Z,23.24
2018-05-27T21:21:49.106Z,23.24
2018-05-27T21:24:24.165Z,23.18
2018-05-27T21:26:58.908Z,23.11
2018-05-27T21:29:33.797Z,23.05
2018-05-27T21:32:08.753Z,23.05
2018-05-27T21:34:44.483Z,23.12
2018-05-27T21:37:18.899Z,23.17
2018-05-27T21:39:54.009Z,23.13
2018-05-27T21:42:28.529Z,23.06
2018-05-27T21:45:03.247Z,22.91
2018-05-27T21:47:38.089Z,22.76
2018-05-27T21:50:12.284Z,22.65
2018-05-27T21:52:46.788Z,22.56
2018-05-27T21:55:21.762Z,22.44
2018-05-27T21:57:56.562Z,22.35
2018-05-27T22:00:32.065Z,22.26
2018-05-27T22:03:06.524Z,22.21
2018-05-27T22:05:41.454Z,22.18
2018-05-27T22:08:16.148Z,22.19
2018-05-27T22:10:50.942Z,22.22
2018-05-27T22:13:25.801Z,22.23
2018-05-27T22:16:00.814Z,22.22
2018-05-27T22:18:36.066Z,22.20
2018-05-27T22:21:10.883Z,22.19
2018-05-27T22:23:45.741Z,22.20
2018-05-27T22:26:20.477Z,22.17
2018-05-27T22:28:55.297Z,22.12
2018-05-27T22:31:30.117Z,22.08
2018-05-27T22:34:04.819Z,22.04
2018-05-27T22:36:39.694Z,21.99
2018-05-27T22:39:14.514Z,21.88
2018-05-27T22:41:49.274Z,21.84
2018-05-27T22:44:24.245Z,21.84
2018-05-27T22:46:59.181Z,21.87
2018-05-27T22:49:34.228Z,21.90
2018-05-27T22:52:09.472Z,21.92
2018-05-27T22:54:44.224Z,21.93
2018-05-27T22:57:19.023Z,21.92
2018-05-27T22:59:53.978Z,21.90
2018-05-27T23:02:28.577Z,21.91
2018-05-27T23:05:03.579Z,21.91
2018-05-27T23:07:38.492Z,21.90
2018-05-27T23:10:13.458Z,21.88
2018-05-27T23:12:48.438Z,21.72
2018-05-27T23:15:23.449Z,21.41
2018-05-27T23:17:58.380Z,21.24
2018-05-27T23:20:33.121Z,21.16
2018-05-27T23:23:07.984Z,21.07
2018-05-27T23:25:42.805Z,21.04
2018-05-27T23:28:17.704Z,21.09
2018-05-27T23:30:52.557Z,21.17
2018-05-27T23:33:27.151Z,21.26
2018-05-27T23:36:02.097Z,21.34
2018-05-27T23:38:36.916Z,21.40
2018-05-27T23:41:11.849Z,21.46
2018-05-27T23:43:46.806Z,21.50
2018-05-27T23:46:21.761Z,21.45
2018-05-27T23:48:56.700Z,21.34
2018-05-27T23:51:31.769Z,21.25
2018-05-27T23:54:06.556Z,21.18
2018-05-27T23:56:41.574Z,21.09
2018-05-27T23:59:16.421Z,20.98
